createdAt,value
2018-03-03T00:02:27.278Z,31.20
2018-03-03T00:04:55.580Z,31.10
2018-03-03T00:07:23.096Z,31.10
2018-03-03T00:09:51.406Z,31.30
2018-03-03T00:12:18.917Z,31.30
2018-03-03T00:14:46.452Z,31.10
2018-03-03T00:17:13.989Z,31.20
2018-03-03T00:19:41.519Z,31.40
2018-03-03T00:22:09.792Z,32.00
2018-03-03T00:24:38.188Z,31.60
2018-03-03T00:27:05.744Z,31.60
2018-03-03T00:29:33.276Z,31.30
2018-03-03T00:32:01.654Z,31.60
2018-03-03T00:34:29.957Z,31.40
2018-03-03T00:36:57.482Z,31.40
2018-03-03T00:39:25.801Z,31.50
2018-03-03T00:41:53.363Z,31.50
2018-03-03T00:44:20.904Z,31.50
2018-03-03T00:46:48.416Z,31.70
2018-03-03T00:49:15.948Z,31.50
2018-03-03T00:51:43.464Z,31.60
2018-03-03T00:54:11.875Z,31.50
2018-03-03T00:56:39.416Z,31.50
2018-03-03T00:59:06.954Z,31.70
2018-03-03T01:01:35.253Z,31.40
2018-03-03T01:04:02.790Z,31.40
2018-03-03T01:06:31.108Z,31.80
2018-03-03T01:08:58.640Z,31.80
2018-03-03T01:11:26.216Z,31.50
2018-03-03T01:13:53.749Z,31.50
2018-03-03T01:16:21.328Z,32.10
2018-03-03T01:18:48.840Z,31.50
2018-03-03T01:21:16.440Z,31.50
2018-03-03T01:23:43.948Z,31.00
2018-03-03T01:26:11.564Z,31.40
2018-03-03T01:28:39.080Z,31.20
2018-03-03T01:31:07.381Z,31.50
2018-03-03T01:33:34.896Z,31.50
2018-03-03T01:36:02.428Z,31.40
2018-03-03T01:38:29.965Z,31.70
2018-03-03T01:40:57.496Z,31.50
2018-03-03T01:43:25.803Z,31.60
2018-03-03T01:45:53.336Z,31.50
2018-03-03T01:48:21.616Z,31.40
2018-03-03T01:50:50.013Z,31.70
2018-03-03T01:53:17.537Z,31.70
2018-03-03T01:55:45.840Z,31.30
2018-03-03T01:58:13.361Z,31.30
2018-03-03T02:00:40.899Z,32.20
2018-03-03T02:03:08.425Z,32.10
2018-03-03T02:05:35.993Z,31.40
2018-03-03T02:08:03.569Z,31.50
2018-03-03T02:10:31.128Z,31.40
2018-03-03T02:13:04.012Z,31.50
2018-03-03T02:15:31.544Z,31.60
2018-03-03T02:17:59.051Z,31.50
2018-03-03T02:20:26.592Z,31.50
2018-03-03T02:22:54.102Z,31.70
2018-03-03T02:25:21.640Z,31.30
2018-03-03T02:27:49.969Z,31.60
2018-03-03T02:30:17.610Z,31.60
2018-03-03T02:32:45.165Z,31.60
2018-03-03T02:35:12.732Z,31.20
2018-03-03T02:37:40.283Z,31.30
2018-03-03T02:40:07.820Z,31.30
2018-03-03T02:45:07.987Z,31.20
2018-03-03T02:47:35.536Z,31.20
2018-03-03T02:50:03.103Z,31.20
2018-03-03T02:52:30.617Z,31.60
2018-03-03T02:54:58.220Z,31.40
2018-03-03T02:57:25.884Z,31.20
2018-03-03T02:59:53.412Z,31.40
2018-03-03T03:02:20.990Z,31.40
2018-03-03T03:04:48.539Z,31.40
2018-03-03T03:07:16.099Z,31.50
2018-03-03T03:09:43.645Z,31.20
2018-03-03T03:12:11.173Z,31.30
2018-03-03T03:14:38.781Z,31.40
2018-03-03T03:17:06.333Z,31.40
2018-03-03T03:19:34.001Z,31.20
2018-03-03T03:22:01.553Z,31.20
2018-03-03T03:24:29.064Z,31.60
2018-03-03T03:26:56.601Z,31.20
2018-03-03T03:29:24.124Z,31.30
2018-03-03T03:31:51.684Z,31.20
2018-03-03T03:34:19.249Z,31.50
2018-03-03T03:36:46.828Z,31.50
2018-03-03T03:39:14.345Z,31.40
2018-03-03T03:41:42.788Z,31.70
2018-03-03T03:44:10.313Z,31.70
2018-03-03T03:46:37.848Z,31.60
2018-03-03T03:49:05.412Z,31.30
2018-03-03T03:51:32.948Z,31.30
2018-03-03T03:54:01.253Z,31.50
2018-03-03T03:56:28.794Z,31.50
2018-03-03T03:58:57.076Z,31.40
2018-03-03T04:01:24.620Z,31.40
2018-03-03T04:03:52.902Z,31.40
2018-03-03T04:06:20.433Z,31.40
2018-03-03T04:08:47.957Z,31.40
2018-03-03T04:11:15.489Z,31.30
2018-03-03T04:13:43.064Z,31.40
2018-03-03T04:16:10.591Z,31.50
2018-03-03T04:18:38.883Z,31.60
2018-03-03T04:21:06.448Z,31.60
2018-03-03T04:23:34.005Z,31.60
2018-03-03T04:26:01.540Z,31.60
2018-03-03T04:28:29.821Z,31.50
2018-03-03T04:30:57.367Z,31.50
2018-03-03T04:33:25.650Z,31.60
2018-03-03T04:35:53.944Z,31.30
2018-03-03T04:38:21.463Z,31.20
2018-03-03T04:40:49.073Z,31.40
2018-03-03T04:43:16.632Z,31.50
2018-03-03T04:45:44.186Z,31.40
2018-03-03T04:48:11.705Z,31.30
2018-03-03T04:50:40.026Z,31.50
2018-03-03T04:53:07.542Z,31.40
2018-03-03T04:55:35.836Z,31.70
2018-03-03T04:58:03.352Z,31.80
2018-03-03T05:00:36.553Z,31.70
2018-03-03T05:03:23.970Z,31.30
2018-03-03T05:05:55.463Z,31.50
2018-03-03T05:08:37.858Z,31.60
2018-03-03T05:11:18.905Z,31.90
2018-03-03T05:13:48.349Z,31.80
2018-03-03T05:16:21.529Z,31.90
2018-03-03T05:18:54.823Z,31.80
2018-03-03T05:21:38.029Z,31.90
2018-03-03T05:24:12.158Z,31.70
2018-03-03T05:40:16.271Z,32.40
2018-03-03T05:42:49.556Z,32.20
2018-03-03T05:45:24.632Z,32.00
2018-03-03T05:47:57.985Z,32.10
2018-03-03T05:50:31.177Z,32.00
2018-03-03T05:53:04.507Z,32.00
2018-03-03T05:55:37.818Z,32.10
2018-03-03T05:58:17.193Z,31.90
2018-03-03T06:14:07.025Z,31.30
2018-03-03T06:16:35.305Z,31.30
2018-03-03T06:19:02.839Z,31.30
2018-03-03T06:21:30.360Z,31.00
2018-03-03T06:23:57.943Z,31.10
2018-03-03T06:26:25.458Z,31.10
2018-03-03T06:28:53.761Z,30.90
2018-03-03T06:31:21.298Z,30.90
2018-03-03T06:33:49.593Z,30.90
2018-03-03T06:36:17.129Z,31.50
2018-03-03T06:38:44.704Z,31.00
2018-03-03T06:41:12.269Z,30.90
2018-03-03T06:43:39.850Z,30.90
2018-03-03T06:46:07.372Z,31.00
2018-03-03T06:48:34.948Z,30.90
2018-03-03T06:51:02.509Z,31.00
2018-03-03T06:53:30.033Z,30.90
2018-03-03T06:55:58.336Z,30.90
2018-03-03T06:58:25.869Z,30.80
2018-03-03T07:00:54.149Z,30.70
2018-03-03T07:03:22.449Z,30.80
2018-03-03T07:05:50.017Z,30.80
2018-03-03T07:08:17.566Z,30.50
2018-03-03T07:10:45.116Z,30.40
2018-03-03T07:13:12.644Z,30.50
2018-03-03T07:15:40.920Z,30.30
2018-03-03T07:18:08.461Z,30.20
2018-03-03T07:20:35.976Z,30.20
2018-03-03T07:23:03.534Z,30.60
2018-03-03T07:25:31.049Z,30.20
2018-03-03T07:27:59.354Z,30.40
2018-03-03T07:30:26.929Z,30.40
2018-03-03T07:32:54.459Z,31.20
2018-03-03T07:35:22.764Z,30.70
2018-03-03T07:37:51.097Z,30.70
2018-03-03T07:40:18.667Z,30.70
2018-03-03T07:42:46.939Z,31.00
2018-03-03T07:45:15.241Z,31.20
2018-03-03T07:47:42.941Z,31.20
2018-03-03T07:50:11.388Z,31.60
2018-03-03T07:52:39.253Z,31.60
2018-03-03T07:55:06.812Z,31.90
2018-03-03T07:57:34.363Z,32.00
2018-03-03T08:00:01.896Z,32.20
2018-03-03T08:02:30.177Z,32.30
2018-03-03T08:04:58.480Z,32.40
2018-03-03T08:07:25.998Z,32.40
2018-03-03T08:09:54.313Z,32.50
2018-03-03T08:12:21.881Z,32.40
2018-03-03T08:14:49.425Z,32.60
2018-03-03T08:17:16.941Z,32.70
2018-03-03T08:19:44.482Z,32.90
2018-03-03T08:22:12.096Z,33.10
2018-03-03T08:24:39.629Z,33.20
2018-03-03T08:27:07.930Z,33.10
2018-03-03T08:29:35.461Z,33.10
2018-03-03T08:32:03.773Z,32.90
2018-03-03T08:34:31.306Z,32.90
2018-03-03T08:36:59.604Z,32.90
2018-03-03T08:39:27.170Z,32.80
2018-03-03T08:41:54.727Z,32.60
2018-03-03T08:44:22.388Z,32.50
2018-03-03T08:46:49.937Z,32.10
2018-03-03T08:49:17.483Z,32.10
2018-03-03T08:51:45.064Z,32.10
2018-03-03T08:54:12.613Z,31.80
2018-03-03T08:56:40.181Z,31.80
2018-03-03T08:59:07.708Z,32.00
2018-03-03T09:01:35.990Z,31.30
2018-03-03T09:04:04.397Z,31.70
2018-03-03T09:06:31.955Z,31.70
2018-03-03T09:08:59.479Z,31.70
2018-03-03T09:11:27.785Z,31.50
2018-03-03T09:13:55.332Z,31.50
2018-03-03T09:16:22.846Z,31.50
2018-03-03T09:18:50.374Z,31.50
2018-03-03T09:21:17.914Z,31.40
2018-03-03T09:23:45.449Z,31.30
2018-03-03T09:26:13.753Z,31.30
2018-03-03T09:28:41.288Z,31.20
2018-03-03T09:31:08.870Z,31.20
2018-03-03T09:33:36.417Z,31.20
2018-03-03T09:36:04.038Z,31.10
2018-03-03T09:38:31.545Z,31.10
2018-03-03T09:40:59.075Z,30.60
2018-03-03T09:43:27.404Z,31.10
2018-03-03T09:45:54.941Z,31.10
2018-03-03T09:48:22.454Z,31.10
2018-03-03T09:50:50.765Z,31.00
2018-03-03T09:53:18.272Z,30.90
2018-03-03T09:55:45.886Z,31.00
2018-03-03T09:58:13.441Z,30.80
2018-03-03T10:00:40.985Z,31.00
2018-03-03T10:03:08.502Z,31.00
2018-03-03T10:05:36.104Z,31.10
2018-03-03T10:08:03.679Z,31.00
2018-03-03T10:10:31.213Z,31.10
2018-03-03T10:12:58.737Z,30.80
2018-03-03T10:15:26.349Z,30.70
2018-03-03T10:17:53.903Z,30.70
2018-03-03T10:20:21.447Z,30.70
2018-03-03T10:22:49.772Z,30.80
2018-03-03T10:25:17.405Z,30.70
2018-03-03T10:27:45.019Z,31.00
2018-03-03T10:30:12.626Z,30.80
2018-03-03T10:32:40.180Z,30.70
2018-03-03T10:35:07.748Z,30.70
2018-03-03T10:37:35.292Z,30.70
2018-03-03T10:40:02.828Z,30.60
2018-03-03T10:42:31.109Z,30.60
2018-03-03T10:44:59.512Z,30.60
2018-03-03T10:47:27.025Z,30.50
2018-03-03T10:49:54.632Z,30.80
2018-03-03T10:52:22.167Z,30.50
2018-03-03T10:54:50.560Z,30.70
2018-03-03T10:57:18.073Z,30.70
2018-03-03T10:59:45.608Z,30.60
2018-03-03T11:02:13.141Z,30.60
2018-03-03T11:04:40.708Z,30.60
2018-03-03T11:07:08.212Z,30.50
2018-03-03T11:09:35.748Z,30.40
2018-03-03T11:12:03.265Z,30.40
2018-03-03T11:14:30.797Z,30.60
2018-03-03T11:16:59.125Z,30.80
2018-03-03T11:19:26.759Z,30.80
2018-03-03T11:21:54.268Z,30.60
2018-03-03T11:24:22.008Z,30.50
2018-03-03T11:26:49.516Z,30.50
2018-03-03T11:29:17.821Z,30.30
2018-03-03T11:31:45.385Z,30.20
2018-03-03T11:34:12.913Z,30.20
2018-03-03T11:36:41.214Z,30.30
2018-03-03T11:39:08.729Z,30.20
2018-03-03T11:41:36.314Z,30.20
2018-03-03T11:44:03.832Z,31.30
2018-03-03T11:46:31.377Z,30.40
2018-03-03T11:48:58.905Z,30.30
2018-03-03T11:51:26.457Z,30.10
2018-03-03T11:53:53.969Z,30.30
2018-03-03T11:56:21.610Z,30.60
2018-03-03T11:58:49.121Z,30.30
2018-03-03T12:01:16.687Z,30.10
2018-03-03T12:03:44.200Z,30.00
2018-03-03T12:06:11.816Z,30.10
2018-03-03T12:08:39.336Z,30.10
2018-03-03T12:11:07.632Z,30.40
2018-03-03T12:13:35.212Z,30.40
2018-03-03T12:16:02.766Z,30.50
2018-03-03T12:18:30.326Z,30.50
2018-03-03T12:20:57.857Z,30.50
2018-03-03T12:23:26.166Z,30.60
2018-03-03T12:25:53.717Z,30.60
2018-03-03T12:28:21.244Z,30.50
2018-03-03T12:30:49.667Z,30.60
2018-03-03T12:33:17.203Z,30.50
2018-03-03T12:35:44.820Z,30.40
2018-03-03T12:38:12.304Z,30.30
2018-03-03T12:40:40.644Z,30.40
2018-03-03T12:43:08.262Z,30.40
2018-03-03T12:45:35.795Z,30.30
2018-03-03T12:48:04.093Z,30.20
2018-03-03T12:50:31.660Z,30.10
2018-03-03T12:52:59.222Z,30.30
2018-03-03T12:55:26.734Z,30.30
2018-03-03T12:57:55.094Z,30.00
2018-03-03T13:00:22.609Z,30.00
2018-03-03T13:02:50.164Z,29.70
2018-03-03T13:05:17.701Z,30.20
2018-03-03T13:07:45.232Z,30.40
2018-03-03T13:10:12.847Z,30.20
2018-03-03T13:12:40.461Z,29.90
2018-03-03T13:15:08.061Z,29.80
2018-03-03T13:17:35.572Z,30.00
2018-03-03T13:20:03.151Z,30.00
2018-03-03T13:22:31.533Z,30.20
2018-03-03T13:24:59.857Z,30.80
2018-03-03T13:27:27.398Z,30.70
2018-03-03T13:29:54.949Z,30.70
2018-03-03T13:32:22.524Z,30.50
2018-03-03T13:34:50.052Z,30.90
2018-03-03T13:37:17.580Z,31.40
2018-03-03T13:39:45.097Z,31.30
2018-03-03T13:42:12.620Z,31.30
2018-03-03T13:44:40.908Z,31.10
2018-03-03T13:47:08.432Z,31.20
2018-03-03T13:49:36.033Z,31.30
2018-03-03T13:52:03.578Z,31.10
2018-03-03T13:54:31.092Z,30.50
2018-03-03T13:56:58.643Z,30.60
2018-03-03T13:59:26.166Z,30.40
2018-03-03T14:01:53.725Z,30.00
2018-03-03T14:04:21.285Z,30.00
2018-03-03T14:06:48.862Z,29.90
2018-03-03T14:09:16.357Z,29.80
2018-03-03T14:11:44.656Z,30.10
2018-03-03T14:14:12.176Z,29.90
2018-03-03T14:16:39.796Z,30.00
2018-03-03T14:19:07.358Z,30.00
2018-03-03T14:21:34.905Z,30.20
2018-03-03T14:24:02.421Z,30.10
2018-03-03T14:26:29.962Z,30.10
2018-03-03T14:28:57.582Z,30.10
2018-03-03T14:31:25.158Z,30.60
2018-03-03T14:33:52.693Z,30.00
2018-03-03T14:36:20.228Z,30.00
2018-03-03T14:38:48.534Z,30.10
2018-03-03T14:41:16.093Z,30.00
2018-03-03T14:43:43.621Z,30.00
2018-03-03T14:46:11.918Z,30.00
2018-03-03T14:48:39.428Z,30.00
2018-03-03T14:51:08.473Z,30.10
2018-03-03T14:53:35.985Z,30.10
2018-03-03T14:56:03.672Z,30.10
2018-03-03T14:58:31.963Z,30.10
2018-03-03T15:00:59.492Z,30.10
2018-03-03T15:03:27.773Z,30.10
2018-03-03T15:05:56.153Z,30.30
2018-03-03T15:08:24.466Z,30.10
2018-03-03T15:10:52.020Z,30.10
2018-03-03T15:13:19.533Z,30.30
2018-03-03T15:15:47.061Z,30.30
2018-03-03T15:18:14.575Z,30.60
2018-03-03T15:20:42.100Z,30.70
2018-03-03T15:23:09.612Z,30.70
2018-03-03T15:25:37.120Z,31.10
2018-03-03T15:28:04.717Z,31.20
2018-03-03T15:30:32.317Z,30.90
2018-03-03T15:32:59.871Z,31.30
2018-03-03T15:35:27.401Z,31.10
2018-03-03T15:37:54.958Z,31.30
2018-03-03T15:40:22.472Z,31.20
2018-03-03T15:42:50.068Z,31.60
2018-03-03T15:45:17.581Z,31.60
2018-03-03T15:47:45.117Z,31.50
2018-03-03T15:50:12.633Z,31.60
2018-03-03T15:52:40.164Z,31.60
2018-03-03T15:55:07.769Z,31.70
2018-03-03T15:57:35.307Z,31.60
2018-03-03T16:00:02.821Z,30.90
2018-03-03T16:02:30.434Z,30.50
2018-03-03T16:04:58.002Z,30.30
2018-03-03T16:07:25.534Z,30.10
2018-03-03T16:09:53.813Z,30.00
2018-03-03T16:12:22.225Z,30.10
2018-03-03T16:14:49.769Z,30.10
2018-03-03T16:17:17.301Z,30.10
2018-03-03T16:19:45.608Z,30.10
2018-03-03T16:22:13.142Z,30.10
2018-03-03T16:24:40.721Z,30.20
2018-03-03T16:27:08.286Z,30.40
2018-03-03T16:29:35.832Z,30.50
2018-03-03T16:32:03.409Z,30.50
2018-03-03T16:34:30.954Z,30.50
2018-03-03T16:36:58.501Z,30.70
2018-03-03T16:39:26.021Z,30.90
2018-03-03T16:41:53.573Z,31.30
2018-03-03T16:44:21.193Z,31.40
2018-03-03T16:46:48.719Z,31.70
2018-03-03T16:49:17.044Z,33.70
2018-03-03T16:51:44.577Z,33.70
2018-03-03T16:54:12.120Z,33.40
2018-03-03T16:56:40.563Z,35.30
2018-03-03T16:59:08.080Z,35.30
2018-03-03T17:01:35.611Z,34.40
2018-03-03T17:04:03.896Z,35.00
2018-03-03T17:06:31.473Z,34.90
2018-03-03T17:08:59.045Z,35.50
2018-03-03T17:11:26.585Z,37.10
2018-03-03T17:13:54.152Z,37.00
2018-03-03T17:16:21.709Z,37.10
2018-03-03T17:18:49.272Z,37.20
2018-03-03T17:21:16.789Z,38.40
2018-03-03T17:23:45.089Z,39.30
2018-03-03T17:26:12.645Z,39.20
2018-03-03T17:28:40.177Z,38.80
2018-03-03T17:31:08.452Z,38.80
2018-03-03T17:33:36.739Z,38.50
2018-03-03T17:36:05.036Z,37.40
2018-03-03T17:38:32.601Z,37.40
2018-03-03T17:41:00.120Z,37.90
2018-03-03T17:43:28.430Z,36.70
2018-03-03T17:45:55.942Z,36.70
2018-03-03T17:48:23.552Z,36.40
2018-03-03T17:50:51.073Z,36.10
2018-03-03T17:53:19.391Z,35.50
2018-03-03T17:55:46.950Z,35.50
2018-03-03T17:58:14.484Z,35.20
2018-03-03T18:00:42.018Z,35.10
2018-03-03T18:03:09.553Z,34.80
2018-03-03T18:05:37.060Z,34.60
2018-03-03T18:08:04.620Z,34.40
2018-03-03T18:10:32.180Z,34.20
2018-03-03T18:12:59.753Z,33.90
2018-03-03T18:15:27.300Z,33.80
2018-03-03T18:17:54.840Z,33.60
2018-03-03T18:20:23.142Z,33.80
2018-03-03T18:22:50.702Z,33.80
2018-03-03T18:25:18.339Z,33.70
2018-03-03T18:27:46.856Z,33.60
2018-03-03T18:30:14.420Z,33.50
2018-03-03T18:32:41.949Z,33.50
2018-03-03T18:35:09.472Z,32.90
2018-03-03T18:37:37.080Z,33.00
2018-03-03T18:40:04.605Z,33.30
2018-03-03T18:42:33.014Z,33.20
2018-03-03T18:45:00.556Z,33.10
2018-03-03T18:47:28.120Z,32.90
2018-03-03T18:49:55.636Z,32.60
2018-03-03T18:52:23.245Z,32.60
2018-03-03T18:54:50.796Z,32.60
2018-03-03T18:57:18.401Z,32.40
2018-03-03T18:59:46.021Z,32.40
2018-03-03T19:02:13.565Z,32.30
2018-03-03T19:04:41.094Z,32.30
2018-03-03T19:07:08.752Z,32.10
2018-03-03T19:09:36.260Z,32.00
2018-03-03T19:12:03.793Z,31.90
2018-03-03T19:14:32.073Z,32.00
2018-03-03T19:17:00.365Z,31.90
2018-03-03T19:19:27.929Z,31.90
2018-03-03T19:21:55.445Z,31.90
2018-03-03T19:24:23.744Z,31.90
2018-03-03T19:26:51.273Z,31.90
2018-03-03T19:29:19.062Z,31.80
2018-03-03T19:31:46.404Z,31.90
2018-03-03T19:34:14.725Z,31.90
2018-03-03T19:36:42.243Z,31.80
2018-03-03T19:39:10.713Z,31.90
2018-03-03T19:41:38.245Z,31.90
2018-03-03T19:44:05.873Z,32.00
2018-03-03T19:46:33.385Z,32.00
2018-03-03T19:49:00.914Z,31.90
2018-03-03T19:51:28.443Z,32.20
2018-03-03T19:53:56.002Z,31.80
2018-03-03T19:56:23.521Z,31.80
2018-03-03T19:58:51.822Z,32.10
2018-03-03T20:01:19.337Z,31.60
2018-03-03T20:03:46.878Z,31.60
2018-03-03T20:06:14.390Z,31.50
2018-03-03T20:08:41.926Z,31.50
2018-03-03T20:11:10.204Z,31.70
2018-03-03T20:13:38.616Z,31.50
2018-03-03T20:16:06.236Z,31.30
2018-03-03T20:18:34.868Z,31.40
2018-03-03T20:21:02.577Z,31.50
2018-03-03T20:23:30.130Z,31.50
2018-03-03T20:25:59.490Z,31.60
2018-03-03T20:28:27.434Z,31.60
2018-03-03T20:30:54.980Z,31.60
2018-03-03T20:33:23.307Z,31.60
2018-03-03T20:35:50.829Z,31.60
2018-03-03T20:38:18.414Z,31.60
2018-03-03T20:40:45.931Z,31.60
2018-03-03T20:43:14.235Z,31.70
2018-03-03T20:45:41.792Z,31.70
2018-03-03T20:48:09.322Z,31.80
2018-03-03T20:50:37.637Z,31.80
2018-03-03T20:53:05.177Z,31.70
2018-03-03T20:55:32.693Z,31.60
2018-03-03T20:58:00.311Z,31.70
2018-03-03T21:00:27.860Z,31.80
2018-03-03T21:02:55.431Z,31.70
2018-03-03T21:05:22.925Z,31.70
2018-03-03T21:07:50.456Z,31.60
2018-03-03T21:10:17.965Z,31.70
2018-03-03T21:12:47.171Z,31.70
2018-03-03T21:15:15.470Z,31.70
2018-03-03T21:17:43.125Z,31.70
2018-03-03T21:20:10.690Z,31.70
2018-03-03T21:22:38.204Z,31.80
2018-03-03T21:25:06.500Z,31.60
2018-03-03T21:27:34.801Z,32.00
2018-03-03T21:30:02.462Z,32.00
2018-03-03T21:32:29.968Z,31.90
2018-03-03T21:34:57.611Z,32.00
2018-03-03T21:37:25.126Z,31.80
2018-03-03T21:39:52.657Z,31.80
2018-03-03T21:42:20.969Z,31.70
2018-03-03T21:44:48.505Z,31.70
2018-03-03T21:47:16.809Z,31.60
2018-03-03T21:49:44.365Z,31.50
2018-03-03T21:52:11.888Z,31.50
2018-03-03T21:54:40.200Z,31.40
2018-03-03T21:57:07.841Z,31.30
2018-03-03T21:59:35.373Z,31.30
2018-03-03T22:02:02.980Z,31.30
2018-03-03T22:04:31.353Z,31.20
2018-03-03T22:06:58.914Z,31.30
2018-03-03T22:09:26.489Z,31.20
2018-03-03T22:11:53.993Z,31.20
2018-03-03T22:14:22.289Z,31.80
2018-03-03T22:16:49.873Z,31.70
2018-03-03T22:19:17.413Z,32.00
2018-03-03T22:21:44.933Z,32.10
2018-03-03T22:24:12.456Z,31.90
2018-03-03T22:26:39.973Z,31.90
2018-03-03T22:29:08.270Z,32.10
2018-03-03T22:31:35.834Z,32.10
2018-03-03T22:34:03.371Z,32.10
2018-03-03T22:36:30.941Z,32.00
2018-03-03T22:38:58.473Z,32.00
2018-03-03T22:41:26.751Z,32.00
2018-03-03T22:43:55.049Z,31.90
2018-03-03T22:46:22.569Z,31.90
2018-03-03T22:48:50.164Z,31.90
2018-03-03T22:51:17.681Z,31.90
2018-03-03T22:53:45.214Z,31.80
2018-03-03T22:56:12.741Z,31.80
2018-03-03T22:58:40.278Z,31.80
2018-03-03T23:01:08.576Z,31.80
2018-03-03T23:03:36.110Z,31.70
2018-03-03T23:06:04.416Z,31.70
2018-03-03T23:08:31.974Z,31.70
2018-03-03T23:10:59.541Z,31.70
2018-03-03T23:13:27.077Z,31.70
2018-03-03T23:15:54.666Z,31.70
2018-03-03T23:18:22.201Z,31.60
2018-03-03T23:20:49.724Z,31.50
2018-03-03T23:23:17.437Z,31.50
2018-03-03T23:25:44.979Z,31.50
2018-03-03T23:28:12.510Z,31.40
2018-03-03T23:30:40.817Z,31.30
2018-03-03T23:33:08.384Z,31.30
2018-03-03T23:35:35.941Z,31.40
2018-03-03T23:38:03.445Z,31.40
2018-03-03T23:40:30.973Z,31.40
2018-03-03T23:42:58.507Z,31.40
2018-03-03T23:45:26.060Z,31.40
2018-03-03T23:47:53.569Z,31.50
2018-03-03T23:50:21.186Z,31.60
2018-03-03T23:52:48.755Z,31.60
2018-03-03T23:55:16.291Z,31.60
2018-03-03T23:57:43.869Z,31.70
